Terminal Aerodrome Forecast
Issued by NWS

Home | Current Version | Previous Version | Text Only | Print | Product List | Glossary On
Versions: 1 2 3 4 5 6 7 8 9 10 11 12 13 14 15 16 17 18 19 20 21 22 23 24 25 26 27 28 29 30 31 32 33 34 35 36 37 38 39
882
FTUS46 KOTX 250537
TAFCOE
TAF
KCOE 250537Z 2506/2606 19006KT P6SM FEW014 OVC035
     FM251000 21009KT P6SM BKN020 OVC060
     FM251200 21013G21KT 2SM -SN BKN009 OVC015
     FM251400 20020G28KT 1SM -SN OVC015
     FM251900 21024G32KT 2SM -SN OVC015
     FM260100 24017G24KT 5SM -SN OVC025
     FM260400 25009G16KT P6SM BKN050=

USA.gov is the U.S. government's official web portal to all federal, state and local government web resources and services.